sensor_id;sensor_type;location;lat;lon;timestamp;temperature;humidity
22249;DHT22;67538;52.180;5.646;2023-03-17T00:00:16;7.80;99.90
22249;DHT22;67538;52.180;5.646;2023-03-17T00:02:45;7.80;99.90
22249;DHT22;67538;52.180;5.646;2023-03-17T00:05:22;7.80;99.90
22249;DHT22;67538;52.180;5.646;2023-03-17T00:07:51;7.70;99.90
22249;DHT22;67538;52.180;5.646;2023-03-17T00:10:22;7.80;99.90
22249;DHT22;67538;52.180;5.646;2023-03-17T00:12:51;7.80;99.90
22249;DHT22;67538;52.180;5.646;2023-03-17T00:15:20;7.70;99.90
22249;DHT22;67538;52.180;5.646;2023-03-17T00:17:48;7.60;99.90
22249;DHT22;67538;52.180;5.646;2023-03-17T00:20:23;7.60;99.90
22249;DHT22;67538;52.180;5.646;2023-03-17T00:22:51;7.50;99.90
22249;DHT22;67538;52.180;5.646;2023-03-17T00:25:22;7.40;99.90
22249;DHT22;67538;52.180;5.646;2023-03-17T00:27:50;7.40;99.90
22249;DHT22;67538;52.180;5.646;2023-03-17T00:30:18;7.40;99.90
22249;DHT22;67538;52.180;5.646;2023-03-17T00:32:46;7.40;99.90
22249;DHT22;67538;52.180;5.646;2023-03-17T00:35:19;7.50;99.90
22249;DHT22;67538;52.180;5.646;2023-03-17T00:37:50;7.50;99.90
22249;DHT22;67538;52.180;5.646;2023-03-17T00:40:20;7.50;99.90
22249;DHT22;67538;52.180;5.646;2023-03-17T00:42:48;7.50;99.90
22249;DHT22;67538;52.180;5.646;2023-03-17T00:45:15;7.50;99.90
22249;DHT22;67538;52.180;5.646;2023-03-17T00:47:43;7.50;99.90
22249;DHT22;67538;52.180;5.646;2023-03-17T00:50:15;7.40;99.90
22249;DHT22;67538;52.180;5.646;2023-03-17T00:52:43;7.30;99.90
22249;DHT22;67538;52.180;5.646;2023-03-17T00:55:13;7.40;99.90
22249;DHT22;67538;52.180;5.646;2023-03-17T00:57:40;7.40;99.90
22249;DHT22;67538;52.180;5.646;2023-03-17T01:00:19;7.40;99.90
22249;DHT22;67538;52.180;5.646;2023-03-17T01:02:48;7.40;99.90
22249;DHT22;67538;52.180;5.646;2023-03-17T01:05:15;7.40;99.90
22249;DHT22;67538;52.180;5.646;2023-03-17T01:07:44;7.30;99.90
22249;DHT22;67538;52.180;5.646;2023-03-17T01:10:21;7.30;99.90
22249;DHT22;67538;52.180;5.646;2023-03-17T01:12:51;7.30;99.90
22249;DHT22;67538;52.180;5.646;2023-03-17T01:15:18;7.20;99.90
22249;DHT22;67538;52.180;5.646;2023-03-17T01:17:46;7.30;99.90
22249;DHT22;67538;52.180;5.646;2023-03-17T01:20:16;7.20;99.90
22249;DHT22;67538;52.180;5.646;2023-03-17T01:22:44;7.30;99.90
22249;DHT22;67538;52.180;5.646;2023-03-17T01:25:11;7.30;99.90
22249;DHT22;67538;52.180;5.646;2023-03-17T01:27:40;7.20;99.90
22249;DHT22;67538;52.180;5.646;2023-03-17T01:30:12;7.20;99.90
22249;DHT22;67538;52.180;5.646;2023-03-17T01:32:43;7.10;99.90
22249;DHT22;67538;52.180;5.646;2023-03-17T01:35:10;7.20;99.90
22249;DHT22;67538;52.180;5.646;2023-03-17T01:37:38;7.20;99.90
22249;DHT22;67538;52.180;5.646;2023-03-17T01:40:06;7.10;99.90
22249;DHT22;67538;52.180;5.646;2023-03-17T01:42:34;7.20;99.90
22249;DHT22;67538;52.180;5.646;2023-03-17T01:45:04;7.20;99.90
22249;DHT22;67538;52.180;5.646;2023-03-17T01:47:32;7.20;99.90
22249;DHT22;67538;52.180;5.646;2023-03-17T01:50:04;7.10;99.90
22249;DHT22;67538;52.180;5.646;2023-03-17T01:52:34;7.10;99.90
22249;DHT22;67538;52.180;5.646;2023-03-17T01:55:04;7.10;99.90
22249;DHT22;67538;52.180;5.646;2023-03-17T01:57:35;7.00;99.90
22249;DHT22;67538;52.180;5.646;2023-03-17T02:00:07;7.00;99.90
22249;DHT22;67538;52.180;5.646;2023-03-17T02:02:37;7.10;99.90
22249;DHT22;67538;52.180;5.646;2023-03-17T02:05:07;7.00;99.90
22249;DHT22;67538;52.180;5.646;2023-03-17T02:07:34;6.90;99.90
22249;DHT22;67538;52.180;5.646;2023-03-17T02:10:03;6.80;99.90
22249;DHT22;67538;52.180;5.646;2023-03-17T02:12:33;6.80;99.90
22249;DHT22;67538;52.180;5.646;2023-03-17T02:15:01;6.70;99.90
22249;DHT22;67538;52.180;5.646;2023-03-17T02:17:29;6.70;99.90
22249;DHT22;67538;52.180;5.646;2023-03-17T02:20:12;6.70;99.90
22249;DHT22;67538;52.180;5.646;2023-03-17T02:22:42;6.60;99.90
22249;DHT22;67538;52.180;5.646;2023-03-17T02:25:10;6.60;99.90
22249;DHT22;67538;52.180;5.646;2023-03-17T02:27:41;6.50;99.90
22249;DHT22;67538;52.180;5.646;2023-03-17T02:30:12;6.50;99.90
22249;DHT22;67538;52.180;5.646;2023-03-17T02:32:39;6.50;99.90
22249;DHT22;67538;52.180;5.646;2023-03-17T02:35:08;6.50;99.90
22249;DHT22;67538;52.180;5.646;2023-03-17T02:37:35;6.50;99.90
22249;DHT22;67538;52.180;5.646;2023-03-17T02:40:05;6.50;99.90
22249;DHT22;67538;52.180;5.646;2023-03-17T02:42:33;6.50;99.90
22249;DHT22;67538;52.180;5.646;2023-03-17T02:45:00;6.50;99.90
22249;DHT22;67538;52.180;5.646;2023-03-17T02:47:27;6.50;99.90
22249;DHT22;67538;52.180;5.646;2023-03-17T02:49:54;6.50;99.90
22249;DHT22;67538;52.180;5.646;2023-03-17T02:52:21;6.50;99.90
22249;DHT22;67538;52.180;5.646;2023-03-17T02:54:48;6.50;99.90
22249;DHT22;67538;52.180;5.646;2023-03-17T02:57:17;6.50;99.90
22249;DHT22;67538;52.180;5.646;2023-03-17T02:59:44;6.50;99.90
22249;DHT22;67538;52.180;5.646;2023-03-17T03:02:11;6.60;99.90
22249;DHT22;67538;52.180;5.646;2023-03-17T03:04:38;6.60;99.90
22249;DHT22;67538;52.180;5.646;2023-03-17T03:07:06;6.60;99.90
22249;DHT22;67538;52.180;5.646;2023-03-17T03:09:33;6.60;99.90
22249;DHT22;67538;52.180;5.646;2023-03-17T03:12:00;6.60;99.90
22249;DHT22;67538;52.180;5.646;2023-03-17T03:14:29;6.60;99.90
22249;DHT22;67538;52.180;5.646;2023-03-17T03:16:57;6.60;99.90
22249;DHT22;67538;52.180;5.646;2023-03-17T03:19:24;6.70;99.90
22249;DHT22;67538;52.180;5.646;2023-03-17T03:21:51;6.70;99.90
22249;DHT22;67538;52.180;5.646;2023-03-17T03:24:18;6.80;99.90
22249;DHT22;67538;52.180;5.646;2023-03-17T03:26:45;6.80;99.90
22249;DHT22;67538;52.180;5.646;2023-03-17T03:29:12;6.80;99.90
22249;DHT22;67538;52.180;5.646;2023-03-17T03:31:41;6.80;99.90
22249;DHT22;67538;52.180;5.646;2023-03-17T03:34:08;6.90;99.90
22249;DHT22;67538;52.180;5.646;2023-03-17T03:36:35;6.90;99.90
22249;DHT22;67538;52.180;5.646;2023-03-17T03:39:02;6.90;99.90
22249;DHT22;67538;52.180;5.646;2023-03-17T03:41:29;6.90;99.90
22249;DHT22;67538;52.180;5.646;2023-03-17T03:43:56;6.90;99.90
22249;DHT22;67538;52.180;5.646;2023-03-17T03:46:23;6.90;99.90
22249;DHT22;67538;52.180;5.646;2023-03-17T03:48:52;6.90;99.90
22249;DHT22;67538;52.180;5.646;2023-03-17T03:51:19;7.00;99.90
22249;DHT22;67538;52.180;5.646;2023-03-17T03:53:46;7.00;99.90
22249;DHT22;67538;52.180;5.646;2023-03-17T03:56:14;7.00;99.90
22249;DHT22;67538;52.180;5.646;2023-03-17T03:58:41;7.10;99.90
22249;DHT22;67538;52.180;5.646;2023-03-17T04:01:09;7.10;99.90
22249;DHT22;67538;52.180;5.646;2023-03-17T04:03:36;7.20;99.90
22249;DHT22;67538;52.180;5.646;2023-03-17T04:06:05;7.20;99.90
22249;DHT22;67538;52.180;5.646;2023-03-17T04:08:32;7.20;99.90
22249;DHT22;67538;52.180;5.646;2023-03-17T04:10:59;7.20;99.90
22249;DHT22;67538;52.180;5.646;2023-03-17T04:13:26;7.20;99.90
22249;DHT22;67538;52.180;5.646;2023-03-17T04:15:53;7.20;99.90
22249;DHT22;67538;52.180;5.646;2023-03-17T04:18:21;7.20;99.90
22249;DHT22;67538;52.180;5.646;2023-03-17T04:20:48;7.20;99.90
22249;DHT22;67538;52.180;5.646;2023-03-17T04:23:16;7.20;99.90
22249;DHT22;67538;52.180;5.646;2023-03-17T04:25:43;7.20;99.90
22249;DHT22;67538;52.180;5.646;2023-03-17T04:28:11;7.20;99.90
22249;DHT22;67538;52.180;5.646;2023-03-17T04:30:38;7.20;99.90
22249;DHT22;67538;52.180;5.646;2023-03-17T04:33:06;7.20;99.90
22249;DHT22;67538;52.180;5.646;2023-03-17T04:35:33;7.10;99.90
22249;DHT22;67538;52.180;5.646;2023-03-17T04:38:00;7.10;99.90
22249;DHT22;67538;52.180;5.646;2023-03-17T04:40:29;7.10;99.90
22249;DHT22;67538;52.180;5.646;2023-03-17T04:42:56;7.20;99.90
22249;DHT22;67538;52.180;5.646;2023-03-17T04:45:23;7.20;99.90
22249;DHT22;67538;52.180;5.646;2023-03-17T04:47:50;7.20;99.90
22249;DHT22;67538;52.180;5.646;2023-03-17T04:50:17;7.30;99.90
22249;DHT22;67538;52.180;5.646;2023-03-17T04:52:44;7.30;99.90
22249;DHT22;67538;52.180;5.646;2023-03-17T04:55:11;7.40;99.90
22249;DHT22;67538;52.180;5.646;2023-03-17T04:57:40;7.40;99.90
22249;DHT22;67538;52.180;5.646;2023-03-17T05:00:08;7.40;99.90
22249;DHT22;67538;52.180;5.646;2023-03-17T05:02:36;7.40;99.90
22249;DHT22;67538;52.180;5.646;2023-03-17T05:05:04;7.30;99.90
22249;DHT22;67538;52.180;5.646;2023-03-17T05:07:31;7.30;99.90
22249;DHT22;67538;52.180;5.646;2023-03-17T05:09:58;7.30;99.90
22249;DHT22;67538;52.180;5.646;2023-03-17T05:12:25;7.30;99.90
22249;DHT22;67538;52.180;5.646;2023-03-17T05:14:53;7.30;99.90
22249;DHT22;67538;52.180;5.646;2023-03-17T05:17:20;7.30;99.90
22249;DHT22;67538;52.180;5.646;2023-03-17T05:19:47;7.30;99.90
22249;DHT22;67538;52.180;5.646;2023-03-17T05:22:15;7.30;99.90
22249;DHT22;67538;52.180;5.646;2023-03-17T05:24:42;7.30;99.90
22249;DHT22;67538;52.180;5.646;2023-03-17T05:27:09;7.40;99.90
22249;DHT22;67538;52.180;5.646;2023-03-17T05:29:36;7.50;99.90
22249;DHT22;67538;52.180;5.646;2023-03-17T05:32:05;7.50;99.90
22249;DHT22;67538;52.180;5.646;2023-03-17T05:34:32;7.50;99.90
22249;DHT22;67538;52.180;5.646;2023-03-17T05:36:59;7.50;99.90
22249;DHT22;67538;52.180;5.646;2023-03-17T05:39:26;7.50;99.90
22249;DHT22;67538;52.180;5.646;2023-03-17T05:41:53;7.50;99.90
22249;DHT22;67538;52.180;5.646;2023-03-17T05:44:21;7.40;99.90
22249;DHT22;67538;52.180;5.646;2023-03-17T05:46:48;7.50;99.90
22249;DHT22;67538;52.180;5.646;2023-03-17T05:49:17;7.50;99.90
22249;DHT22;67538;52.180;5.646;2023-03-17T05:51:45;7.40;99.90
22249;DHT22;67538;52.180;5.646;2023-03-17T05:54:12;7.30;99.90
22249;DHT22;67538;52.180;5.646;2023-03-17T05:56:39;7.30;99.90
22249;DHT22;67538;52.180;5.646;2023-03-17T05:59:07;7.30;99.90
22249;DHT22;67538;52.180;5.646;2023-03-17T06:01:35;7.30;99.90
22249;DHT22;67538;52.180;5.646;2023-03-17T06:04:03;7.40;99.90
22249;DHT22;67538;52.180;5.646;2023-03-17T06:06:31;7.30;99.90
22249;DHT22;67538;52.180;5.646;2023-03-17T06:08:58;7.40;99.90
22249;DHT22;67538;52.180;5.646;2023-03-17T06:11:25;7.40;99.90
22249;DHT22;67538;52.180;5.646;2023-03-17T06:13:52;7.40;99.90
22249;DHT22;67538;52.180;5.646;2023-03-17T06:16:19;7.40;99.90
22249;DHT22;67538;52.180;5.646;2023-03-17T06:18:46;7.50;99.90
22249;DHT22;67538;52.180;5.646;2023-03-17T06:21:14;7.50;99.90
22249;DHT22;67538;52.180;5.646;2023-03-17T06:23:43;7.60;99.90
22249;DHT22;67538;52.180;5.646;2023-03-17T06:26:10;7.60;99.90
22249;DHT22;67538;52.180;5.646;2023-03-17T06:28:37;7.60;99.90
22249;DHT22;67538;52.180;5.646;2023-03-17T06:31:04;7.70;99.90
22249;DHT22;67538;52.180;5.646;2023-03-17T06:33:31;7.70;99.90
22249;DHT22;67538;52.180;5.646;2023-03-17T06:35:59;7.70;99.90
22249;DHT22;67538;52.180;5.646;2023-03-17T06:38:26;7.80;99.90
22249;DHT22;67538;52.180;5.646;2023-03-17T06:40:54;7.80;99.90
22249;DHT22;67538;52.180;5.646;2023-03-17T06:43:22;7.90;99.90
22249;DHT22;67538;52.180;5.646;2023-03-17T06:45:51;7.90;99.90
22249;DHT22;67538;52.180;5.646;2023-03-17T06:48:18;8.10;99.90
22249;DHT22;67538;52.180;5.646;2023-03-17T06:50:48;8.20;99.90
22249;DHT22;67538;52.180;5.646;2023-03-17T06:53:15;8.20;99.90
22249;DHT22;67538;52.180;5.646;2023-03-17T06:55:42;8.30;99.90
22249;DHT22;67538;52.180;5.646;2023-03-17T06:58:11;8.40;99.90
22249;DHT22;67538;52.180;5.646;2023-03-17T07:00:38;8.60;99.90
22249;DHT22;67538;52.180;5.646;2023-03-17T07:03:05;8.80;99.90
22249;DHT22;67538;52.180;5.646;2023-03-17T07:05:32;8.90;99.90
22249;DHT22;67538;52.180;5.646;2023-03-17T07:07:59;9.10;99.90
22249;DHT22;67538;52.180;5.646;2023-03-17T07:10:26;9.30;99.90
22249;DHT22;67538;52.180;5.646;2023-03-17T07:12:53;9.90;99.90
22249;DHT22;67538;52.180;5.646;2023-03-17T07:15:22;11.10;99.90
22249;DHT22;67538;52.180;5.646;2023-03-17T07:17:49;11.50;99.90
22249;DHT22;67538;52.180;5.646;2023-03-17T07:20:16;11.40;99.90
22249;DHT22;67538;52.180;5.646;2023-03-17T07:22:43;11.20;99.90
22249;DHT22;67538;52.180;5.646;2023-03-17T07:25:11;11.10;99.90
22249;DHT22;67538;52.180;5.646;2023-03-17T07:27:38;10.80;99.90
22249;DHT22;67538;52.180;5.646;2023-03-17T07:30:06;10.90;99.90
22249;DHT22;67538;52.180;5.646;2023-03-17T07:32:34;10.90;99.90
22249;DHT22;67538;52.180;5.646;2023-03-17T07:35:02;11.10;99.90
22249;DHT22;67538;52.180;5.646;2023-03-17T07:37:29;11.20;99.90
22249;DHT22;67538;52.180;5.646;2023-03-17T07:39:56;11.20;99.90
22249;DHT22;67538;52.180;5.646;2023-03-17T07:42:23;11.20;99.90
22249;DHT22;67538;52.180;5.646;2023-03-17T07:44:52;11.40;99.90
22249;DHT22;67538;52.180;5.646;2023-03-17T07:47:19;12.00;99.90
22249;DHT22;67538;52.180;5.646;2023-03-17T07:49:48;12.40;99.90
22249;DHT22;67538;52.180;5.646;2023-03-17T07:52:15;12.90;99.90
22249;DHT22;67538;52.180;5.646;2023-03-17T07:54:42;13.30;99.90
22249;DHT22;67538;52.180;5.646;2023-03-17T07:57:09;13.20;99.90
22249;DHT22;67538;52.180;5.646;2023-03-17T07:59:36;13.10;99.90
22249;DHT22;67538;52.180;5.646;2023-03-17T08:02:04;12.90;99.90
22249;DHT22;67538;52.180;5.646;2023-03-17T08:04:31;12.90;99.90
22249;DHT22;67538;52.180;5.646;2023-03-17T08:07:00;12.90;99.90
22249;DHT22;67538;52.180;5.646;2023-03-17T08:09:27;12.80;99.90
22249;DHT22;67538;52.180;5.646;2023-03-17T08:11:54;13.20;99.90
22249;DHT22;67538;52.180;5.646;2023-03-17T08:14:22;14.00;99.90
22249;DHT22;67538;52.180;5.646;2023-03-17T08:16:49;15.40;99.90
22249;DHT22;67538;52.180;5.646;2023-03-17T08:19:16;16.80;99.90
22249;DHT22;67538;52.180;5.646;2023-03-17T08:21:43;18.10;99.90
22249;DHT22;67538;52.180;5.646;2023-03-17T08:24:12;19.50;99.90
22249;DHT22;67538;52.180;5.646;2023-03-17T08:26:39;19.30;99.90
22249;DHT22;67538;52.180;5.646;2023-03-17T08:29:06;18.80;99.90
22249;DHT22;67538;52.180;5.646;2023-03-17T08:31:34;18.40;99.90
22249;DHT22;67538;52.180;5.646;2023-03-17T08:34:02;18.00;99.90
22249;DHT22;67538;52.180;5.646;2023-03-17T08:36:29;18.60;99.90
22249;DHT22;67538;52.180;5.646;2023-03-17T08:38:56;18.80;99.90
22249;DHT22;67538;52.180;5.646;2023-03-17T08:41:26;18.70;99.90
22249;DHT22;67538;52.180;5.646;2023-03-17T08:43:53;19.00;99.90
22249;DHT22;67538;52.180;5.646;2023-03-17T08:46:23;18.80;99.90
22249;DHT22;67538;52.180;5.646;2023-03-17T08:48:51;18.00;99.90
22249;DHT22;67538;52.180;5.646;2023-03-17T08:51:19;18.00;99.90
22249;DHT22;67538;52.180;5.646;2023-03-17T08:53:46;18.40;99.90
22249;DHT22;67538;52.180;5.646;2023-03-17T08:56:13;17.50;99.90
22249;DHT22;67538;52.180;5.646;2023-03-17T08:58:43;17.90;99.90
22249;DHT22;67538;52.180;5.646;2023-03-17T09:01:11;18.50;99.90
22249;DHT22;67538;52.180;5.646;2023-03-17T09:03:38;19.30;99.90
22249;DHT22;67538;52.180;5.646;2023-03-17T09:06:07;18.60;99.90
22249;DHT22;67538;52.180;5.646;2023-03-17T09:08:37;17.60;99.90
22249;DHT22;67538;52.180;5.646;2023-03-17T09:11:05;16.90;99.90
22249;DHT22;67538;52.180;5.646;2023-03-17T09:13:32;16.70;99.90
22249;DHT22;67538;52.180;5.646;2023-03-17T09:16:01;16.40;99.90
22249;DHT22;67538;52.180;5.646;2023-03-17T09:18:28;15.80;99.90
22249;DHT22;67538;52.180;5.646;2023-03-17T09:20:57;15.40;99.90
22249;DHT22;67538;52.180;5.646;2023-03-17T09:23:24;15.40;99.90
22249;DHT22;67538;52.180;5.646;2023-03-17T09:25:51;15.00;99.90
22249;DHT22;67538;52.180;5.646;2023-03-17T09:28:18;14.60;99.90
22249;DHT22;67538;52.180;5.646;2023-03-17T09:30:45;14.60;99.90
22249;DHT22;67538;52.180;5.646;2023-03-17T09:33:14;14.60;99.90
22249;DHT22;67538;52.180;5.646;2023-03-17T09:35:42;14.70;99.90
22249;DHT22;67538;52.180;5.646;2023-03-17T09:38:10;14.30;99.90
22249;DHT22;67538;52.180;5.646;2023-03-17T09:40:44;14.30;99.90
22249;DHT22;67538;52.180;5.646;2023-03-17T09:43:20;14.20;99.90
22249;DHT22;67538;52.180;5.646;2023-03-17T09:45:50;14.20;99.90
22249;DHT22;67538;52.180;5.646;2023-03-17T09:48:49;14.60;99.90
22249;DHT22;67538;52.180;5.646;2023-03-17T09:51:19;15.60;99.90
22249;DHT22;67538;52.180;5.646;2023-03-17T09:53:49;16.10;99.90
22249;DHT22;67538;52.180;5.646;2023-03-17T09:56:19;16.00;99.90
22249;DHT22;67538;52.180;5.646;2023-03-17T09:58:49;15.50;99.90
22249;DHT22;67538;52.180;5.646;2023-03-17T10:01:17;14.90;99.90
22249;DHT22;67538;52.180;5.646;2023-03-17T10:03:45;14.30;99.90
22249;DHT22;67538;52.180;5.646;2023-03-17T10:06:28;14.20;99.90
22249;DHT22;67538;52.180;5.646;2023-03-17T10:09:04;14.90;99.90
22249;DHT22;67538;52.180;5.646;2023-03-17T10:11:38;15.70;99.90
22249;DHT22;67538;52.180;5.646;2023-03-17T10:14:26;15.40;99.90
22249;DHT22;67538;52.180;5.646;2023-03-17T10:16:59;14.60;99.90
22249;DHT22;67538;52.180;5.646;2023-03-17T10:19:33;14.10;99.90
22249;DHT22;67538;52.180;5.646;2023-03-17T10:22:05;13.80;99.90
22249;DHT22;67538;52.180;5.646;2023-03-17T10:24:38;13.60;99.90
22249;DHT22;67538;52.180;5.646;2023-03-17T10:27:10;13.50;99.90
22249;DHT22;67538;52.180;5.646;2023-03-17T10:29:38;13.40;99.90
22249;DHT22;67538;52.180;5.646;2023-03-17T10:32:08;13.40;99.90
22249;DHT22;67538;52.180;5.646;2023-03-17T10:34:37;13.40;99.90
22249;DHT22;67538;52.180;5.646;2023-03-17T10:37:11;13.50;99.90
22249;DHT22;67538;52.180;5.646;2023-03-17T10:39:43;13.60;99.90
22249;DHT22;67538;52.180;5.646;2023-03-17T10:42:18;13.50;99.90
22249;DHT22;67538;52.180;5.646;2023-03-17T10:44:50;13.50;99.90
22249;DHT22;67538;52.180;5.646;2023-03-17T10:47:33;13.80;99.90
22249;DHT22;67538;52.180;5.646;2023-03-17T10:50:03;14.10;99.90
22249;DHT22;67538;52.180;5.646;2023-03-17T10:52:45;14.10;99.90
22249;DHT22;67538;52.180;5.646;2023-03-17T10:55:16;14.20;99.90
22249;DHT22;67538;52.180;5.646;2023-03-17T10:57:51;14.40;99.90
22249;DHT22;67538;52.180;5.646;2023-03-17T11:00:20;14.30;99.90
22249;DHT22;67538;52.180;5.646;2023-03-17T11:02:53;14.20;99.90
22249;DHT22;67538;52.180;5.646;2023-03-17T11:05:22;14.40;99.90
22249;DHT22;67538;52.180;5.646;2023-03-17T11:08:05;14.40;99.90
22249;DHT22;67538;52.180;5.646;2023-03-17T11:10:36;14.50;99.90
22249;DHT22;67538;52.180;5.646;2023-03-17T11:13:04;14.80;99.90
22249;DHT22;67538;52.180;5.646;2023-03-17T11:15:34;15.00;99.90
22249;DHT22;67538;52.180;5.646;2023-03-17T11:18:03;15.10;99.90
22249;DHT22;67538;52.180;5.646;2023-03-17T11:20:42;14.90;99.90
22249;DHT22;67538;52.180;5.646;2023-03-17T11:23:18;14.80;99.90
22249;DHT22;67538;52.180;5.646;2023-03-17T11:25:51;14.90;99.90
22249;DHT22;67538;52.180;5.646;2023-03-17T11:28:21;15.00;99.90
22249;DHT22;67538;52.180;5.646;2023-03-17T11:30:57;15.10;99.90
22249;DHT22;67538;52.180;5.646;2023-03-17T11:33:34;14.90;99.90
22249;DHT22;67538;52.180;5.646;2023-03-17T11:36:08;15.10;99.90
22249;DHT22;67538;52.180;5.646;2023-03-17T11:38:44;15.10;99.90
22249;DHT22;67538;52.180;5.646;2023-03-17T11:41:34;15.10;99.90
22249;DHT22;67538;52.180;5.646;2023-03-17T11:44:26;15.00;99.90
22249;DHT22;67538;52.180;5.646;2023-03-17T11:46:58;15.20;99.90
22249;DHT22;67538;52.180;5.646;2023-03-17T11:49:35;15.30;99.90
22249;DHT22;67538;52.180;5.646;2023-03-17T11:52:06;15.40;99.90
22249;DHT22;67538;52.180;5.646;2023-03-17T11:54:45;15.60;99.90
22249;DHT22;67538;52.180;5.646;2023-03-17T11:57:19;15.70;99.90
22249;DHT22;67538;52.180;5.646;2023-03-17T11:59:51;15.90;99.90
22249;DHT22;67538;52.180;5.646;2023-03-17T12:02:24;15.90;99.90
22249;DHT22;67538;52.180;5.646;2023-03-17T12:04:55;16.00;99.90
22249;DHT22;67538;52.180;5.646;2023-03-17T12:07:27;15.90;99.90
22249;DHT22;67538;52.180;5.646;2023-03-17T12:10:04;15.90;99.90
22249;DHT22;67538;52.180;5.646;2023-03-17T12:12:38;15.80;99.90
22249;DHT22;67538;52.180;5.646;2023-03-17T12:15:12;15.60;99.90
22249;DHT22;67538;52.180;5.646;2023-03-17T12:17:46;15.60;99.90
22249;DHT22;67538;52.180;5.646;2023-03-17T12:20:17;15.80;99.90
22249;DHT22;67538;52.180;5.646;2023-03-17T12:22:53;16.00;99.90
22249;DHT22;67538;52.180;5.646;2023-03-17T12:25:27;16.20;99.90
22249;DHT22;67538;52.180;5.646;2023-03-17T12:27:59;16.20;99.90
22249;DHT22;67538;52.180;5.646;2023-03-17T12:30:31;16.20;99.90
22249;DHT22;67538;52.180;5.646;2023-03-17T12:33:10;16.30;99.90
22249;DHT22;67538;52.180;5.646;2023-03-17T12:35:41;16.30;99.90
22249;DHT22;67538;52.180;5.646;2023-03-17T12:38:11;16.40;99.90
22249;DHT22;67538;52.180;5.646;2023-03-17T12:43:46;16.50;99.90
22249;DHT22;67538;52.180;5.646;2023-03-17T12:46:28;16.50;99.90
22249;DHT22;67538;52.180;5.646;2023-03-17T12:52:15;16.50;99.90
22249;DHT22;67538;52.180;5.646;2023-03-17T12:54:49;16.40;99.90
22249;DHT22;67538;52.180;5.646;2023-03-17T12:57:19;16.40;99.90
22249;DHT22;67538;52.180;5.646;2023-03-17T12:59:49;16.50;99.90
22249;DHT22;67538;52.180;5.646;2023-03-17T13:02:31;16.40;99.90
22249;DHT22;67538;52.180;5.646;2023-03-17T13:05:06;16.20;99.90
22249;DHT22;67538;52.180;5.646;2023-03-17T13:07:38;16.00;99.90
22249;DHT22;67538;52.180;5.646;2023-03-17T13:10:19;16.00;99.90
22249;DHT22;67538;52.180;5.646;2023-03-17T13:13:10;16.00;99.90
22249;DHT22;67538;52.180;5.646;2023-03-17T13:15:56;16.00;99.90
22249;DHT22;67538;52.180;5.646;2023-03-17T13:18:49;16.00;99.90
22249;DHT22;67538;52.180;5.646;2023-03-17T13:21:24;16.00;99.90
22249;DHT22;67538;52.180;5.646;2023-03-17T13:23:59;16.00;99.90
22249;DHT22;67538;52.180;5.646;2023-03-17T13:26:55;16.00;99.90
22249;DHT22;67538;52.180;5.646;2023-03-17T13:29:36;15.90;99.90
22249;DHT22;67538;52.180;5.646;2023-03-17T13:32:37;15.90;99.90
22249;DHT22;67538;52.180;5.646;2023-03-17T13:35:19;15.90;99.90
22249;DHT22;67538;52.180;5.646;2023-03-17T13:41:21;15.80;99.90
22249;DHT22;67538;52.180;5.646;2023-03-17T13:44:03;15.90;99.90
22249;DHT22;67538;52.180;5.646;2023-03-17T13:46:40;15.90;99.90
22249;DHT22;67538;52.180;5.646;2023-03-17T13:49:21;15.80;99.90
22249;DHT22;67538;52.180;5.646;2023-03-17T13:51:53;15.90;99.90
22249;DHT22;67538;52.180;5.646;2023-03-17T13:54:30;16.00;99.90
22249;DHT22;67538;52.180;5.646;2023-03-17T13:56:58;16.00;99.90
22249;DHT22;67538;52.180;5.646;2023-03-17T13:59:54;16.00;99.90
22249;DHT22;67538;52.180;5.646;2023-03-17T14:02:25;16.00;99.90
22249;DHT22;67538;52.180;5.646;2023-03-17T14:04:56;16.20;99.90
22249;DHT22;67538;52.180;5.646;2023-03-17T14:07:27;16.20;99.90
22249;DHT22;67538;52.180;5.646;2023-03-17T14:09:58;16.30;99.90
22249;DHT22;67538;52.180;5.646;2023-03-17T14:12:32;16.20;99.90
22249;DHT22;67538;52.180;5.646;2023-03-17T14:15:04;16.20;99.90
22249;DHT22;67538;52.180;5.646;2023-03-17T14:17:40;16.20;99.90
22249;DHT22;67538;52.180;5.646;2023-03-17T14:20:20;16.20;99.90
22249;DHT22;67538;52.180;5.646;2023-03-17T14:22:52;16.10;99.90
22249;DHT22;67538;52.180;5.646;2023-03-17T14:25:21;16.10;99.90
22249;DHT22;67538;52.180;5.646;2023-03-17T14:27:51;16.10;99.90
22249;DHT22;67538;52.180;5.646;2023-03-17T14:30:21;16.00;99.90
22249;DHT22;67538;52.180;5.646;2023-03-17T14:32:55;16.10;99.90
22249;DHT22;67538;52.180;5.646;2023-03-17T14:35:23;16.10;99.90
22249;DHT22;67538;52.180;5.646;2023-03-17T14:37:54;16.10;99.90
22249;DHT22;67538;52.180;5.646;2023-03-17T14:40:23;16.10;99.90
22249;DHT22;67538;52.180;5.646;2023-03-17T14:42:51;16.10;99.90
22249;DHT22;67538;52.180;5.646;2023-03-17T14:45:25;16.10;99.90
22249;DHT22;67538;52.180;5.646;2023-03-17T14:47:54;16.10;99.90
22249;DHT22;67538;52.180;5.646;2023-03-17T14:50:25;16.10;99.90
22249;DHT22;67538;52.180;5.646;2023-03-17T14:52:53;16.10;99.90
22249;DHT22;67538;52.180;5.646;2023-03-17T14:55:20;16.10;99.90
22249;DHT22;67538;52.180;5.646;2023-03-17T14:57:50;16.10;99.90
22249;DHT22;67538;52.180;5.646;2023-03-17T15:00:31;16.10;99.90
22249;DHT22;67538;52.180;5.646;2023-03-17T15:03:03;16.10;99.90
22249;DHT22;67538;52.180;5.646;2023-03-17T15:05:37;16.10;99.90
22249;DHT22;67538;52.180;5.646;2023-03-17T15:08:28;16.10;99.90
22249;DHT22;67538;52.180;5.646;2023-03-17T15:10:58;16.20;99.90
22249;DHT22;67538;52.180;5.646;2023-03-17T15:13:26;16.30;99.90
22249;DHT22;67538;52.180;5.646;2023-03-17T15:15:54;16.30;99.90
22249;DHT22;67538;52.180;5.646;2023-03-17T15:18:25;16.30;99.90
22249;DHT22;67538;52.180;5.646;2023-03-17T15:20:54;16.30;99.90
22249;DHT22;67538;52.180;5.646;2023-03-17T15:23:22;16.20;99.90
22249;DHT22;67538;52.180;5.646;2023-03-17T15:25:53;16.20;99.90
22249;DHT22;67538;52.180;5.646;2023-03-17T15:28:22;16.10;99.90
22249;DHT22;67538;52.180;5.646;2023-03-17T15:30:52;16.10;99.90
22249;DHT22;67538;52.180;5.646;2023-03-17T15:33:24;16.10;99.90
22249;DHT22;67538;52.180;5.646;2023-03-17T15:35:57;16.20;99.90
22249;DHT22;67538;52.180;5.646;2023-03-17T15:38:26;16.30;99.90
22249;DHT22;67538;52.180;5.646;2023-03-17T15:40:54;16.30;99.90
22249;DHT22;67538;52.180;5.646;2023-03-17T15:43:21;16.30;99.90
22249;DHT22;67538;52.180;5.646;2023-03-17T15:45:53;16.30;99.90
22249;DHT22;67538;52.180;5.646;2023-03-17T15:48:22;16.30;99.90
22249;DHT22;67538;52.180;5.646;2023-03-17T15:50:51;16.30;99.90
22249;DHT22;67538;52.180;5.646;2023-03-17T15:53:20;16.30;99.90
22249;DHT22;67538;52.180;5.646;2023-03-17T15:55:47;16.30;99.90
22249;DHT22;67538;52.180;5.646;2023-03-17T15:58:14;16.20;99.90
22249;DHT22;67538;52.180;5.646;2023-03-17T16:00:42;16.20;99.90
22249;DHT22;67538;52.180;5.646;2023-03-17T16:03:15;16.10;99.90
22249;DHT22;67538;52.180;5.646;2023-03-17T16:05:44;16.10;99.90